TVF35DL LKPR-LFPO
Flight info
| Callsign | TVF35DL |
|---|---|
| Flight time | 1h 29m |
| Altitude | 36000 |
| Route | BALTU DCT DONAD DCT RAPET Z93 KODUK DCT MARZA DCT LOHRE DCT BOMBI DCT BETEX DCT IDOSA DCT TOLVU DCT RAPOR DCT RENSA |
| Aircraft | A320/M-SDE3FGHIRWY/LB1 |
Departure
| Time | 2026-05-05 11:12 |
|---|---|
| Airport | Václav Havel Airport Prague (LKPR) |
Arrival
| Time | 2026-05-05 12:42 |
|---|---|
| Airport | Paris-Orly Airport (LFPO) |
| Time | Latitude | Longitude | Altitude | Speed | Heading |
|---|---|---|---|---|---|
| 2026-05-05 10:45 | 50.10391 | 14.26692 | 1174 ft | 0 kts | 34° |
| 2026-05-05 11:04 | 50.10389 | 14.26690 | 1174 ft | 2 kts | 34° |
| 2026-05-05 11:04 | 50.10371 | 14.26668 | 1172 ft | 3 kts | 52° |
| 2026-05-05 11:04 | 50.10363 | 14.26640 | 1173 ft | 3 kts | 111° |
| 2026-05-05 11:05 | 50.10370 | 14.26620 | 1172 ft | 3 kts | 122° |
| 2026-05-05 11:05 | 50.10372 | 14.26614 | 1174 ft | 0 kts | 125° |
| 2026-05-05 11:06 | 50.10357 | 14.26620 | 1171 ft | 8 kts | 174° |
| 2026-05-05 11:07 | 50.10284 | 14.26553 | 1175 ft | 13 kts | 216° |
| 2026-05-05 11:07 | 50.10216 | 14.26561 | 1178 ft | 15 kts | 131° |
| 2026-05-05 11:07 | 50.10133 | 14.26735 | 1181 ft | 24 kts | 127° |
| 2026-05-05 11:07 | 50.10028 | 14.26951 | 1194 ft | 23 kts | 127° |
| 2026-05-05 11:08 | 50.09936 | 14.27142 | 1200 ft | 21 kts | 127° |
| 2026-05-05 11:08 | 50.09848 | 14.27319 | 1203 ft | 21 kts | 133° |
| 2026-05-05 11:08 | 50.09747 | 14.27475 | 1205 ft | 20 kts | 136° |
| 2026-05-05 11:08 | 50.09646 | 14.27630 | 1209 ft | 20 kts | 134° |
| 2026-05-05 11:09 | 50.09552 | 14.27774 | 1212 ft | 19 kts | 135° |
| 2026-05-05 11:09 | 50.09459 | 14.27918 | 1215 ft | 18 kts | 135° |
| 2026-05-05 11:09 | 50.09365 | 14.28063 | 1215 ft | 20 kts | 136° |
| 2026-05-05 11:09 | 50.09263 | 14.28216 | 1213 ft | 21 kts | 135° |
| 2026-05-05 11:10 | 50.09144 | 14.28261 | 1211 ft | 18 kts | 213° |
| 2026-05-05 11:10 | 50.09095 | 14.28099 | 1208 ft | 17 kts | 274° |
| 2026-05-05 11:10 | 50.09123 | 14.28005 | 1210 ft | 0 kts | 307° |
| 2026-05-05 11:11 | 50.09199 | 14.27849 | 1211 ft | 53 kts | 307° |
| 2026-05-05 11:11 | 50.09563 | 14.27095 | 1207 ft | 118 kts | 307° |
| 2026-05-05 11:11 | 50.10162 | 14.25857 | 1193 ft | 167 kts | 307° |
| 2026-05-05 11:12 | 50.10877 | 14.24385 | 1753 ft | 168 kts | 308° |
| 2026-05-05 11:12 | 50.11593 | 14.22927 | 2411 ft | 171 kts | 308° |
| 2026-05-05 11:12 | 50.12314 | 14.21447 | 3049 ft | 174 kts | 308° |
| 2026-05-05 11:12 | 50.13071 | 14.19914 | 3476 ft | 187 kts | 308° |
| 2026-05-05 11:13 | 50.13894 | 14.18199 | 3729 ft | 208 kts | 308° |
| 2026-05-05 11:13 | 50.14778 | 14.16347 | 4013 ft | 226 kts | 307° |
| 2026-05-05 11:13 | 50.15776 | 14.14259 | 4352 ft | 252 kts | 307° |
| 2026-05-05 11:13 | 50.16869 | 14.11974 | 4871 ft | 270 kts | 307° |
| 2026-05-05 11:14 | 50.18009 | 14.09589 | 5673 ft | 276 kts | 307° |
| 2026-05-05 11:14 | 50.19167 | 14.07174 | 6523 ft | 280 kts | 307° |
| 2026-05-05 11:14 | 50.20345 | 14.04723 | 7354 ft | 284 kts | 306° |
| 2026-05-05 11:14 | 50.21484 | 14.02182 | 8179 ft | 287 kts | 297° |
| 2026-05-05 11:15 | 50.22179 | 13.99254 | 8961 ft | 290 kts | 280° |
| 2026-05-05 11:15 | 50.22286 | 13.96112 | 9738 ft | 292 kts | 262° |
| 2026-05-05 11:15 | 50.21814 | 13.93020 | 10415 ft | 298 kts | 250° |
| 2026-05-05 11:15 | 50.21140 | 13.89828 | 10639 ft | 321 kts | 250° |
| 2026-05-05 11:16 | 50.20410 | 13.86406 | 10861 ft | 343 kts | 250° |
| 2026-05-05 11:16 | 50.19645 | 13.82807 | 11349 ft | 353 kts | 250° |
| 2026-05-05 11:16 | 50.18880 | 13.79193 | 12061 ft | 356 kts | 250° |
| 2026-05-05 11:16 | 50.18102 | 13.75512 | 12805 ft | 358 kts | 249° |
| 2026-05-05 11:17 | 50.17308 | 13.71761 | 13521 ft | 361 kts | 250° |
| 2026-05-05 11:17 | 50.16529 | 13.68081 | 14184 ft | 364 kts | 250° |
| 2026-05-05 11:17 | 50.15732 | 13.64319 | 14832 ft | 366 kts | 250° |
| 2026-05-05 11:17 | 50.14927 | 13.60535 | 15475 ft | 369 kts | 250° |
| 2026-05-05 11:18 | 50.14113 | 13.56721 | 16086 ft | 372 kts | 250° |
| 2026-05-05 11:18 | 50.13294 | 13.52892 | 16686 ft | 374 kts | 250° |
| 2026-05-05 11:18 | 50.12467 | 13.49030 | 17247 ft | 377 kts | 250° |
| 2026-05-05 11:18 | 50.11636 | 13.45142 | 17804 ft | 379 kts | 250° |
| 2026-05-05 11:19 | 50.10797 | 13.41221 | 18332 ft | 382 kts | 251° |
| 2026-05-05 11:19 | 50.09952 | 13.37279 | 18870 ft | 385 kts | 250° |
| 2026-05-05 11:19 | 50.09186 | 13.33269 | 19363 ft | 388 kts | 257° |
| 2026-05-05 11:19 | 50.08853 | 13.29072 | 19837 ft | 393 kts | 266° |
| 2026-05-05 11:20 | 50.08748 | 13.24801 | 20310 ft | 396 kts | 266° |
| 2026-05-05 11:20 | 50.08643 | 13.20500 | 20751 ft | 399 kts | 266° |
| 2026-05-05 11:20 | 50.08533 | 13.16169 | 21193 ft | 402 kts | 266° |
| 2026-05-05 11:20 | 50.08414 | 13.11820 | 21632 ft | 404 kts | 266° |
| 2026-05-05 11:21 | 50.08290 | 13.07435 | 22054 ft | 407 kts | 266° |
| 2026-05-05 11:21 | 50.08176 | 13.03017 | 22466 ft | 410 kts | 268° |
| 2026-05-05 11:21 | 50.08397 | 12.98570 | 22879 ft | 414 kts | 278° |
| 2026-05-05 11:21 | 50.09063 | 12.94185 | 23267 ft | 418 kts | 283° |
| 2026-05-05 11:22 | 50.09812 | 12.89803 | 23642 ft | 420 kts | 283° |
| 2026-05-05 11:22 | 50.10549 | 12.85435 | 24014 ft | 423 kts | 283° |
| 2026-05-05 11:22 | 50.11293 | 12.80990 | 24387 ft | 425 kts | 283° |
| 2026-05-05 11:22 | 50.12034 | 12.76526 | 24759 ft | 427 kts | 283° |
| 2026-05-05 11:23 | 50.12781 | 12.72034 | 25136 ft | 428 kts | 283° |
| 2026-05-05 11:23 | 50.13532 | 12.67532 | 25503 ft | 430 kts | 283° |
| 2026-05-05 11:23 | 50.14283 | 12.63014 | 25879 ft | 431 kts | 283° |
| 2026-05-05 11:23 | 50.15033 | 12.58490 | 26245 ft | 432 kts | 283° |
| 2026-05-05 11:24 | 50.15781 | 12.53935 | 26584 ft | 434 kts | 282° |
| 2026-05-05 11:24 | 50.16528 | 12.49377 | 26921 ft | 435 kts | 282° |
| 2026-05-05 11:24 | 50.17275 | 12.44800 | 27245 ft | 436 kts | 282° |
| 2026-05-05 11:24 | 50.18022 | 12.40205 | 27551 ft | 437 kts | 282° |
| 2026-05-05 11:25 | 50.18728 | 12.35581 | 27844 ft | 438 kts | 278° |
| 2026-05-05 11:25 | 50.19052 | 12.30874 | 28126 ft | 437 kts | 270° |
| 2026-05-05 11:25 | 50.19050 | 12.26125 | 28416 ft | 438 kts | 268° |
| 2026-05-05 11:25 | 50.19030 | 12.21366 | 28702 ft | 439 kts | 268° |
| 2026-05-05 11:26 | 50.19004 | 12.16591 | 29016 ft | 439 kts | 268° |
| 2026-05-05 11:26 | 50.18979 | 12.11847 | 29420 ft | 437 kts | 268° |
| 2026-05-05 11:26 | 50.18954 | 12.07120 | 29812 ft | 434 kts | 268° |
| 2026-05-05 11:26 | 50.18930 | 12.02477 | 30187 ft | 433 kts | 268° |
| 2026-05-05 11:27 | 50.18906 | 11.97795 | 30561 ft | 431 kts | 268° |
| 2026-05-05 11:27 | 50.18882 | 11.93125 | 30924 ft | 429 kts | 268° |
| 2026-05-05 11:27 | 50.18854 | 11.88478 | 31269 ft | 428 kts | 268° |
| 2026-05-05 11:27 | 50.18824 | 11.83847 | 31597 ft | 427 kts | 268° |
| 2026-05-05 11:28 | 50.18808 | 11.79217 | 31917 ft | 426 kts | 269° |
| 2026-05-05 11:28 | 50.18845 | 11.74609 | 32275 ft | 424 kts | 269° |
| 2026-05-05 11:28 | 50.18919 | 11.70011 | 32603 ft | 423 kts | 270° |
| 2026-05-05 11:28 | 50.19005 | 11.65427 | 32926 ft | 422 kts | 270° |
| 2026-05-05 11:29 | 50.19091 | 11.60859 | 33245 ft | 421 kts | 270° |
| 2026-05-05 11:29 | 50.19168 | 11.56297 | 33571 ft | 420 kts | 269° |
| 2026-05-05 11:29 | 50.19234 | 11.51748 | 33909 ft | 418 kts | 269° |
| 2026-05-05 11:29 | 50.19292 | 11.47218 | 34239 ft | 417 kts | 269° |
| 2026-05-05 11:30 | 50.19345 | 11.42704 | 34545 ft | 415 kts | 269° |
| 2026-05-05 11:30 | 50.19391 | 11.38206 | 34816 ft | 415 kts | 269° |
| 2026-05-05 11:30 | 50.19432 | 11.33710 | 35068 ft | 414 kts | 269° |
| 2026-05-05 11:30 | 50.19476 | 11.29214 | 35317 ft | 414 kts | 268° |
| 2026-05-05 11:31 | 50.19520 | 11.24727 | 35545 ft | 414 kts | 268° |
| 2026-05-05 11:31 | 50.19563 | 11.20233 | 35760 ft | 414 kts | 268° |
| 2026-05-05 11:31 | 50.19608 | 11.15740 | 35841 ft | 415 kts | 268° |
| 2026-05-05 11:32 | 50.19692 | 11.06769 | 35854 ft | 416 kts | 268° |
| 2026-05-05 11:32 | 50.19753 | 10.97744 | 35857 ft | 416 kts | 268° |
| 2026-05-05 11:33 | 50.19335 | 10.88784 | 35850 ft | 414 kts | 260° |
| 2026-05-05 11:33 | 50.18589 | 10.79895 | 35844 ft | 413 kts | 260° |
| 2026-05-05 11:34 | 50.17828 | 10.71018 | 35840 ft | 413 kts | 260° |
| 2026-05-05 11:34 | 50.17067 | 10.62142 | 35836 ft | 413 kts | 260° |
| 2026-05-05 11:35 | 50.16297 | 10.53259 | 35839 ft | 413 kts | 259° |
| 2026-05-05 11:35 | 50.15522 | 10.44386 | 35837 ft | 412 kts | 259° |
| 2026-05-05 11:36 | 50.14751 | 10.35576 | 35840 ft | 413 kts | 259° |
| 2026-05-05 11:36 | 50.13963 | 10.26714 | 35842 ft | 412 kts | 259° |
| 2026-05-05 11:37 | 50.13168 | 10.17863 | 35844 ft | 413 kts | 259° |
| 2026-05-05 11:37 | 50.12367 | 10.08997 | 35846 ft | 413 kts | 259° |
| 2026-05-05 11:38 | 50.11558 | 10.00138 | 35845 ft | 413 kts | 259° |
| 2026-05-05 11:38 | 50.10737 | 9.91271 | 35842 ft | 413 kts | 259° |
| 2026-05-05 11:39 | 50.09914 | 9.82408 | 35840 ft | 413 kts | 259° |
| 2026-05-05 11:39 | 50.09089 | 9.73626 | 35838 ft | 412 kts | 258° |
| 2026-05-05 11:40 | 50.08247 | 9.64795 | 35836 ft | 412 kts | 258° |
| 2026-05-05 11:40 | 50.07404 | 9.55965 | 35835 ft | 412 kts | 258° |
| 2026-05-05 11:41 | 50.06680 | 9.47121 | 35833 ft | 415 kts | 265° |
| 2026-05-05 11:41 | 50.06570 | 9.38135 | 35828 ft | 415 kts | 265° |
| 2026-05-05 11:42 | 50.06452 | 9.29144 | 35831 ft | 416 kts | 265° |
| 2026-05-05 11:42 | 50.06324 | 9.20157 | 35827 ft | 415 kts | 265° |
| 2026-05-05 11:43 | 50.06191 | 9.11166 | 35834 ft | 415 kts | 265° |
| 2026-05-05 11:43 | 50.06053 | 9.02185 | 35833 ft | 415 kts | 265° |
| 2026-05-05 11:44 | 50.05909 | 8.93213 | 35829 ft | 415 kts | 264° |
| 2026-05-05 11:44 | 50.05748 | 8.84238 | 35826 ft | 415 kts | 264° |
| 2026-05-05 11:45 | 50.05246 | 8.75321 | 35826 ft | 412 kts | 258° |
| 2026-05-05 11:45 | 50.04444 | 8.66546 | 35822 ft | 413 kts | 258° |
| 2026-05-05 11:46 | 50.03625 | 8.57722 | 35823 ft | 413 kts | 258° |
| 2026-05-05 11:46 | 50.02799 | 8.48870 | 35826 ft | 414 kts | 258° |
| 2026-05-05 11:47 | 50.01972 | 8.40014 | 35828 ft | 414 kts | 258° |
| 2026-05-05 11:47 | 50.01133 | 8.31157 | 35832 ft | 414 kts | 258° |
| 2026-05-05 11:48 | 49.99864 | 8.17862 | 35840 ft | 415 kts | 257° |
| 2026-05-05 11:48 | 49.99007 | 8.08995 | 35840 ft | 415 kts | 257° |
| 2026-05-05 11:49 | 49.98140 | 8.00120 | 35841 ft | 416 kts | 257° |
| 2026-05-05 11:49 | 49.97267 | 7.91244 | 35844 ft | 416 kts | 257° |
| 2026-05-05 11:50 | 49.96537 | 7.83876 | 35843 ft | 415 kts | 257° |
| 2026-05-05 11:50 | 49.95652 | 7.75007 | 35854 ft | 415 kts | 257° |
| 2026-05-05 11:51 | 49.94762 | 7.66143 | 35848 ft | 415 kts | 257° |
| 2026-05-05 11:51 | 49.93864 | 7.57290 | 35846 ft | 415 kts | 257° |
| 2026-05-05 11:52 | 49.92963 | 7.48426 | 35848 ft | 416 kts | 257° |
| 2026-05-05 11:52 | 49.92050 | 7.39540 | 35843 ft | 417 kts | 257° |
| 2026-05-05 11:53 | 49.91132 | 7.30655 | 35856 ft | 418 kts | 257° |
| 2026-05-05 11:53 | 49.90206 | 7.21824 | 35844 ft | 418 kts | 257° |
| 2026-05-05 11:54 | 49.89261 | 7.12921 | 35850 ft | 419 kts | 256° |
| 2026-05-05 11:54 | 49.88317 | 7.03998 | 35848 ft | 419 kts | 256° |
| 2026-05-05 11:55 | 49.87364 | 6.95071 | 35847 ft | 420 kts | 256° |
| 2026-05-05 11:55 | 49.86403 | 6.86140 | 35847 ft | 420 kts | 256° |
| 2026-05-05 11:56 | 49.85438 | 6.77221 | 35848 ft | 420 kts | 256° |
| 2026-05-05 11:56 | 49.84458 | 6.68305 | 35845 ft | 420 kts | 256° |
| 2026-05-05 11:57 | 49.83468 | 6.59389 | 35844 ft | 420 kts | 256° |
| 2026-05-05 11:57 | 49.82477 | 6.50477 | 35843 ft | 420 kts | 256° |
| 2026-05-05 11:58 | 49.81479 | 6.41564 | 35847 ft | 420 kts | 256° |
| 2026-05-05 11:58 | 49.80373 | 6.32759 | 35851 ft | 419 kts | 254° |
| 2026-05-05 11:59 | 49.79167 | 6.23940 | 35860 ft | 419 kts | 254° |
| 2026-05-05 11:59 | 49.77966 | 6.15117 | 35862 ft | 419 kts | 254° |
| 2026-05-05 12:00 | 49.76785 | 6.06286 | 35858 ft | 419 kts | 254° |
| 2026-05-05 12:00 | 49.75601 | 5.97462 | 35865 ft | 418 kts | 254° |
| 2026-05-05 12:01 | 49.74418 | 5.88713 | 35864 ft | 418 kts | 253° |
| 2026-05-05 12:01 | 49.72627 | 5.80237 | 35853 ft | 414 kts | 246° |
| 2026-05-05 12:02 | 49.70667 | 5.71857 | 35861 ft | 415 kts | 246° |
| 2026-05-05 12:02 | 49.68708 | 5.63470 | 35851 ft | 416 kts | 246° |
| 2026-05-05 12:03 | 49.66737 | 5.55033 | 35842 ft | 420 kts | 245° |
| 2026-05-05 12:03 | 49.64736 | 5.46515 | 35842 ft | 423 kts | 245° |
| 2026-05-05 12:04 | 49.62735 | 5.38041 | 35847 ft | 424 kts | 245° |
| 2026-05-05 12:04 | 49.61746 | 5.33761 | 35390 ft | 425 kts | 246° |
| 2026-05-05 12:04 | 49.60783 | 5.29373 | 34221 ft | 437 kts | 247° |
| 2026-05-05 12:05 | 49.59835 | 5.24887 | 33223 ft | 444 kts | 247° |
| 2026-05-05 12:05 | 49.58894 | 5.20334 | 32281 ft | 448 kts | 248° |
| 2026-05-05 12:05 | 49.58015 | 5.15702 | 31296 ft | 453 kts | 250° |
| 2026-05-05 12:05 | 49.57189 | 5.10994 | 30283 ft | 457 kts | 251° |
| 2026-05-05 12:06 | 49.56388 | 5.06235 | 29216 ft | 462 kts | 251° |
| 2026-05-05 12:06 | 49.55582 | 5.01420 | 28117 ft | 466 kts | 252° |
| 2026-05-05 12:06 | 49.54754 | 4.96580 | 26998 ft | 470 kts | 251° |
| 2026-05-05 12:06 | 49.53902 | 4.91737 | 26127 ft | 467 kts | 251° |
| 2026-05-05 12:07 | 49.53048 | 4.86945 | 25300 ft | 463 kts | 252° |
| 2026-05-05 12:07 | 49.52195 | 4.82187 | 24473 ft | 459 kts | 252° |
| 2026-05-05 12:07 | 49.51342 | 4.77480 | 23655 ft | 454 kts | 252° |
| 2026-05-05 12:07 | 49.50494 | 4.72819 | 22850 ft | 450 kts | 252° |
| 2026-05-05 12:08 | 49.49655 | 4.68207 | 22038 ft | 448 kts | 252° |
| 2026-05-05 12:08 | 49.48824 | 4.63622 | 21414 ft | 441 kts | 252° |
| 2026-05-05 12:08 | 49.48003 | 4.59095 | 20704 ft | 438 kts | 252° |
| 2026-05-05 12:08 | 49.47193 | 4.54624 | 20128 ft | 431 kts | 252° |
| 2026-05-05 12:09 | 49.46390 | 4.50215 | 19551 ft | 425 kts | 252° |
| 2026-05-05 12:09 | 49.45594 | 4.45872 | 19011 ft | 419 kts | 252° |
| 2026-05-05 12:09 | 49.44818 | 4.41660 | 18494 ft | 412 kts | 252° |
| 2026-05-05 12:09 | 49.44044 | 4.37461 | 17990 ft | 405 kts | 252° |
| 2026-05-05 12:10 | 49.43282 | 4.33332 | 17496 ft | 398 kts | 251° |
| 2026-05-05 12:10 | 49.42530 | 4.29268 | 17014 ft | 393 kts | 252° |
| 2026-05-05 12:10 | 49.41790 | 4.25264 | 16519 ft | 388 kts | 252° |
| 2026-05-05 12:10 | 49.41058 | 4.21313 | 16127 ft | 381 kts | 252° |
| 2026-05-05 12:11 | 49.40334 | 4.17417 | 15571 ft | 379 kts | 252° |
| 2026-05-05 12:11 | 49.39610 | 4.13555 | 15049 ft | 376 kts | 252° |
| 2026-05-05 12:11 | 49.38886 | 4.09721 | 14565 ft | 372 kts | 252° |
| 2026-05-05 12:11 | 49.38169 | 4.05910 | 14047 ft | 370 kts | 252° |
| 2026-05-05 12:12 | 49.37459 | 4.02129 | 13613 ft | 366 kts | 252° |
| 2026-05-05 12:12 | 49.36743 | 3.98403 | 13349 ft | 363 kts | 249° |
| 2026-05-05 12:12 | 49.35736 | 3.94870 | 13063 ft | 360 kts | 241° |
| 2026-05-05 12:12 | 49.34597 | 3.91455 | 12781 ft | 359 kts | 242° |
| 2026-05-05 12:13 | 49.33467 | 3.88061 | 12501 ft | 358 kts | 242° |
| 2026-05-05 12:13 | 49.32336 | 3.84672 | 12220 ft | 356 kts | 242° |
| 2026-05-05 12:13 | 49.31208 | 3.81296 | 11941 ft | 355 kts | 242° |
| 2026-05-05 12:13 | 49.30085 | 3.77935 | 11659 ft | 354 kts | 242° |
| 2026-05-05 12:14 | 49.28965 | 3.74587 | 11384 ft | 352 kts | 242° |
| 2026-05-05 12:14 | 49.27849 | 3.71254 | 11119 ft | 351 kts | 242° |
| 2026-05-05 12:14 | 49.26872 | 3.67840 | 10827 ft | 350 kts | 250° |
| 2026-05-05 12:14 | 49.26290 | 3.64220 | 10730 ft | 351 kts | 257° |
| 2026-05-05 12:15 | 49.25783 | 3.60570 | 10648 ft | 351 kts | 256° |
| 2026-05-05 12:15 | 49.25267 | 3.56920 | 10570 ft | 350 kts | 256° |
| 2026-05-05 12:15 | 49.24746 | 3.53279 | 10495 ft | 350 kts | 256° |
| 2026-05-05 12:15 | 49.24222 | 3.49645 | 10418 ft | 350 kts | 256° |
| 2026-05-05 12:16 | 49.23695 | 3.46013 | 10342 ft | 349 kts | 256° |
| 2026-05-05 12:16 | 49.23169 | 3.42385 | 10262 ft | 349 kts | 256° |
| 2026-05-05 12:16 | 49.22653 | 3.38809 | 10164 ft | 337 kts | 256° |
| 2026-05-05 12:16 | 49.22160 | 3.35379 | 10034 ft | 324 kts | 256° |
| 2026-05-05 12:17 | 49.21685 | 3.32071 | 9881 ft | 313 kts | 256° |
| 2026-05-05 12:17 | 49.21226 | 3.28896 | 9856 ft | 298 kts | 256° |
| 2026-05-05 12:17 | 49.20783 | 3.25834 | 9858 ft | 292 kts | 256° |
| 2026-05-05 12:17 | 49.20343 | 3.22812 | 9860 ft | 291 kts | 256° |
| 2026-05-05 12:18 | 49.19901 | 3.19793 | 9860 ft | 291 kts | 256° |
| 2026-05-05 12:18 | 49.19458 | 3.16782 | 9859 ft | 291 kts | 256° |
| 2026-05-05 12:18 | 49.19019 | 3.13802 | 9860 ft | 290 kts | 256° |
| 2026-05-05 12:18 | 49.18569 | 3.10749 | 9861 ft | 291 kts | 256° |
| 2026-05-05 12:19 | 49.18133 | 3.07778 | 9861 ft | 291 kts | 256° |
| 2026-05-05 12:19 | 49.17691 | 3.04759 | 9857 ft | 291 kts | 256° |
| 2026-05-05 12:19 | 49.17247 | 3.01744 | 9860 ft | 291 kts | 256° |
| 2026-05-05 12:19 | 49.16800 | 2.98728 | 9861 ft | 291 kts | 256° |
| 2026-05-05 12:20 | 49.16351 | 2.95707 | 9862 ft | 291 kts | 256° |
| 2026-05-05 12:20 | 49.15902 | 2.92694 | 9858 ft | 291 kts | 256° |
| 2026-05-05 12:20 | 49.15452 | 2.89675 | 9862 ft | 291 kts | 256° |
| 2026-05-05 12:20 | 49.15002 | 2.86651 | 9862 ft | 292 kts | 256° |
| 2026-05-05 12:21 | 49.14553 | 2.83634 | 9866 ft | 291 kts | 256° |
| 2026-05-05 12:21 | 49.14103 | 2.80613 | 9861 ft | 292 kts | 256° |
| 2026-05-05 12:21 | 49.13651 | 2.77596 | 9868 ft | 292 kts | 256° |
| 2026-05-05 12:21 | 49.13197 | 2.74574 | 9871 ft | 292 kts | 256° |
| 2026-05-05 12:22 | 49.12741 | 2.71557 | 9869 ft | 292 kts | 256° |
| 2026-05-05 12:22 | 49.12283 | 2.68540 | 9869 ft | 292 kts | 256° |
| 2026-05-05 12:22 | 49.11827 | 2.65522 | 9871 ft | 292 kts | 256° |
| 2026-05-05 12:22 | 49.11370 | 2.62496 | 9871 ft | 292 kts | 256° |
| 2026-05-05 12:23 | 49.10928 | 2.59475 | 9872 ft | 292 kts | 260° |
| 2026-05-05 12:23 | 49.10783 | 2.56377 | 9865 ft | 293 kts | 268° |
| 2026-05-05 12:23 | 49.10735 | 2.53272 | 9872 ft | 293 kts | 268° |
| 2026-05-05 12:23 | 49.10683 | 2.50167 | 9862 ft | 293 kts | 268° |
| 2026-05-05 12:24 | 49.10628 | 2.47068 | 9869 ft | 293 kts | 268° |
| 2026-05-05 12:24 | 49.10571 | 2.43962 | 9863 ft | 293 kts | 268° |
| 2026-05-05 12:24 | 49.10513 | 2.40856 | 9872 ft | 293 kts | 268° |
| 2026-05-05 12:24 | 49.10455 | 2.37752 | 9862 ft | 293 kts | 268° |
| 2026-05-05 12:25 | 49.10397 | 2.34642 | 9863 ft | 293 kts | 268° |
| 2026-05-05 12:25 | 49.10338 | 2.31531 | 9873 ft | 293 kts | 268° |
| 2026-05-05 12:25 | 49.10275 | 2.28415 | 9872 ft | 293 kts | 268° |
| 2026-05-05 12:25 | 49.10211 | 2.25304 | 9872 ft | 294 kts | 268° |
| 2026-05-05 12:26 | 49.10149 | 2.22192 | 9829 ft | 294 kts | 268° |
| 2026-05-05 12:26 | 49.10087 | 2.19074 | 9387 ft | 295 kts | 268° |
| 2026-05-05 12:26 | 49.10021 | 2.15945 | 8981 ft | 295 kts | 268° |
| 2026-05-05 12:26 | 49.09953 | 2.12824 | 8592 ft | 294 kts | 268° |
| 2026-05-05 12:27 | 49.09882 | 2.09718 | 8205 ft | 292 kts | 268° |
| 2026-05-05 12:27 | 49.09812 | 2.06628 | 7832 ft | 290 kts | 267° |
| 2026-05-05 12:27 | 49.09412 | 2.03670 | 7559 ft | 283 kts | 244° |
| 2026-05-05 12:27 | 49.08262 | 2.01280 | 7190 ft | 280 kts | 225° |
| 2026-05-05 12:28 | 49.06878 | 1.99260 | 6893 ft | 278 kts | 222° |
| 2026-05-05 12:28 | 49.05434 | 1.97223 | 6869 ft | 281 kts | 222° |
| 2026-05-05 12:28 | 49.03990 | 1.95204 | 6874 ft | 282 kts | 222° |
| 2026-05-05 12:28 | 49.02542 | 1.93188 | 6864 ft | 282 kts | 222° |
| 2026-05-05 12:29 | 49.01090 | 1.91175 | 6864 ft | 282 kts | 222° |
| 2026-05-05 12:29 | 48.99642 | 1.89220 | 6869 ft | 282 kts | 216° |
| 2026-05-05 12:29 | 48.97878 | 1.88002 | 6834 ft | 281 kts | 189° |
| 2026-05-05 12:29 | 48.95918 | 1.87689 | 6706 ft | 279 kts | 182° |
| 2026-05-05 12:30 | 48.94003 | 1.87537 | 6582 ft | 278 kts | 182° |
| 2026-05-05 12:30 | 48.92074 | 1.87401 | 6442 ft | 278 kts | 182° |
| 2026-05-05 12:30 | 48.90143 | 1.87268 | 6331 ft | 277 kts | 182° |
| 2026-05-05 12:30 | 48.88213 | 1.87133 | 6204 ft | 277 kts | 182° |
| 2026-05-05 12:31 | 48.86292 | 1.87001 | 6080 ft | 276 kts | 182° |
| 2026-05-05 12:31 | 48.84373 | 1.86870 | 5872 ft | 275 kts | 182° |
| 2026-05-05 12:31 | 48.82463 | 1.86748 | 5635 ft | 274 kts | 182° |
| 2026-05-05 12:31 | 48.80564 | 1.86629 | 5410 ft | 273 kts | 182° |
| 2026-05-05 12:32 | 48.78668 | 1.86511 | 5184 ft | 272 kts | 182° |
| 2026-05-05 12:32 | 48.76781 | 1.86399 | 4955 ft | 268 kts | 182° |
| 2026-05-05 12:32 | 48.74964 | 1.86298 | 4725 ft | 254 kts | 182° |
| 2026-05-05 12:32 | 48.73258 | 1.86206 | 4495 ft | 236 kts | 182° |
| 2026-05-05 12:33 | 48.71667 | 1.86114 | 4263 ft | 223 kts | 182° |
| 2026-05-05 12:33 | 48.70143 | 1.86034 | 4051 ft | 215 kts | 182° |
| 2026-05-05 12:33 | 48.68654 | 1.86054 | 3823 ft | 214 kts | 168° |
| 2026-05-05 12:33 | 48.67270 | 1.86832 | 3627 ft | 214 kts | 154° |
| 2026-05-05 12:34 | 48.65943 | 1.87861 | 3475 ft | 213 kts | 152° |
| 2026-05-05 12:34 | 48.64646 | 1.88916 | 3323 ft | 211 kts | 152° |
| 2026-05-05 12:34 | 48.63357 | 1.89970 | 3177 ft | 213 kts | 152° |
| 2026-05-05 12:34 | 48.62058 | 1.91036 | 3056 ft | 212 kts | 152° |
| 2026-05-05 12:35 | 48.60763 | 1.92141 | 2974 ft | 210 kts | 143° |
| 2026-05-05 12:35 | 48.59853 | 1.93878 | 2989 ft | 219 kts | 113° |
| 2026-05-05 12:35 | 48.59591 | 1.96094 | 2984 ft | 216 kts | 85° |
| 2026-05-05 12:35 | 48.60041 | 1.98216 | 2986 ft | 213 kts | 62° |
| 2026-05-05 12:36 | 48.60749 | 2.00187 | 2988 ft | 212 kts | 61° |
| 2026-05-05 12:36 | 48.61461 | 2.02149 | 2981 ft | 214 kts | 61° |
| 2026-05-05 12:36 | 48.62172 | 2.04126 | 2973 ft | 215 kts | 62° |
| 2026-05-05 12:36 | 48.62891 | 2.06130 | 2981 ft | 214 kts | 62° |
| 2026-05-05 12:37 | 48.63589 | 2.08088 | 2985 ft | 213 kts | 62° |
| 2026-05-05 12:37 | 48.64301 | 2.10078 | 2983 ft | 216 kts | 62° |
| 2026-05-05 12:37 | 48.65000 | 2.12032 | 2978 ft | 206 kts | 62° |
| 2026-05-05 12:37 | 48.65673 | 2.13918 | 2899 ft | 198 kts | 62° |
| 2026-05-05 12:38 | 48.66299 | 2.15671 | 2691 ft | 182 kts | 62° |
| 2026-05-05 12:38 | 48.66872 | 2.17278 | 2479 ft | 164 kts | 63° |
| 2026-05-05 12:38 | 48.67393 | 2.18738 | 2251 ft | 152 kts | 63° |
| 2026-05-05 12:38 | 48.67885 | 2.20121 | 2056 ft | 147 kts | 64° |
| 2026-05-05 12:39 | 48.68365 | 2.21468 | 1861 ft | 145 kts | 62° |
| 2026-05-05 12:39 | 48.68683 | 2.22362 | 1732 ft | 140 kts | 59° |
| 2026-05-05 12:39 | 48.69135 | 2.23633 | 1555 ft | 138 kts | 59° |
| 2026-05-05 12:39 | 48.69586 | 2.24900 | 1374 ft | 136 kts | 60° |
| 2026-05-05 12:40 | 48.70034 | 2.26162 | 1193 ft | 136 kts | 59° |
| 2026-05-05 12:40 | 48.70480 | 2.27418 | 1013 ft | 135 kts | 59° |
| 2026-05-05 12:40 | 48.70921 | 2.28662 | 835 ft | 134 kts | 59° |
| 2026-05-05 12:40 | 48.71363 | 2.29905 | 657 ft | 135 kts | 59° |
| 2026-05-05 12:41 | 48.71805 | 2.31151 | 463 ft | 135 kts | 59° |
| 2026-05-05 12:41 | 48.72248 | 2.32398 | 311 ft | 134 kts | 60° |
| 2026-05-05 12:41 | 48.72631 | 2.33478 | 296 ft | 93 kts | 62° |
| 2026-05-05 12:41 | 48.72859 | 2.34128 | 293 ft | 53 kts | 62° |
| 2026-05-05 12:42 | 48.72976 | 2.34482 | 290 ft | 26 kts | 73° |
| 2026-05-05 12:42 | 48.73007 | 2.34730 | 290 ft | 21 kts | 80° |
| 2026-05-05 12:42 | 48.73027 | 2.34929 | 291 ft | 18 kts | 82° |
| 2026-05-05 12:42 | 48.73041 | 2.35114 | 291 ft | 16 kts | 90° |
| 2026-05-05 12:43 | 48.73010 | 2.35236 | 291 ft | 10 kts | 130° |
| 2026-05-05 12:43 | 48.72949 | 2.35302 | 293 ft | 15 kts | 155° |
| 2026-05-05 12:43 | 48.72883 | 2.35410 | 296 ft | 13 kts | 131° |
| 2026-05-05 12:43 | 48.72788 | 2.35460 | 291 ft | 20 kts | 165° |
| 2026-05-05 12:44 | 48.72653 | 2.35514 | 291 ft | 16 kts | 165° |
| 2026-05-05 12:44 | 48.72554 | 2.35558 | 293 ft | 14 kts | 163° |
| 2026-05-05 12:44 | 48.72463 | 2.35628 | 294 ft | 15 kts | 116° |
| 2026-05-05 12:44 | 48.72478 | 2.35799 | 293 ft | 18 kts | 89° |
| 2026-05-05 12:45 | 48.72469 | 2.35999 | 291 ft | 20 kts | 86° |
| 2026-05-05 12:45 | 48.72502 | 2.36206 | 291 ft | 21 kts | 74° |
| 2026-05-05 12:45 | 48.72542 | 2.36424 | 291 ft | 22 kts | 75° |
| 2026-05-05 12:45 | 48.72581 | 2.36591 | 291 ft | 8 kts | 22° |
| 2026-05-05 12:46 | 48.72636 | 2.36585 | 291 ft | 6 kts | 3° |
| 2026-05-05 12:46 | 48.72671 | 2.36590 | 292 ft | 3 kts | 4° |
| 2026-05-05 12:46 | 48.72685 | 2.36591 | 295 ft | 0 kts | 4° |
| 2026-05-05 12:46 | 48.72686 | 2.36591 | 293 ft | 0 kts | 4° |
| 2026-05-05 12:47 | 48.72688 | 2.36592 | 295 ft | 0 kts | 4° |